Time;durP1;ratioP1;P1;durP2;ratioP2;P2;SDS_P1;SDS_P2;PMS_P1;PMS_P2;Temp;Humidity;BMP_temperature;BMP_pressure;BME280_temperature;BME280_humidity;BME280_pressure;Samples;Min_cycle;Max_cycle;Signal;HPM_P1;HPM_P2
2024/01/14 00:00:33;;;;;;;;;;;27.90;99.90;;;;;;5105866;28;20321;-67
2024/01/14 00:03:03;;;;;;;;;;;27.90;99.90;;;;;;5101007;28;19912;-73
2024/01/14 00:05:29;;;;;;;;;;;28.00;99.90;;;;;;5102123;28;19986;-80
2024/01/14 00:07:57;;;;;;;;;;;27.90;99.90;;;;;;5102288;28;19911;-69
2024/01/14 00:10:24;;;;;;;;;;;27.90;99.90;;;;;;5104069;28;20010;-70
2024/01/14 00:12:50;;;;;;;;;;;27.80;99.90;;;;;;5107235;28;19943;-72
2024/01/14 00:15:18;;;;;;;;;;;27.70;99.90;;;;;;5103817;28;20400;-66
2024/01/14 00:17:45;;;;;;;;;;;27.70;99.90;;;;;;5105407;28;19969;-71
2024/01/14 00:20:12;;;;;;;;;;;27.70;99.90;;;;;;5107024;28;19934;-77
2024/01/14 00:22:39;;;;;;;;;;;27.80;99.90;;;;;;5103560;28;19908;-75
2024/01/14 00:25:05;;;;;;;;;;;27.80;99.90;;;;;;5102121;28;19912;-74
2024/01/14 00:27:32;;;;;;;;;;;28.00;99.90;;;;;;5094644;28;19908;-76
2024/01/14 00:30:00;;;;;;;;;;;28.10;99.90;;;;;;5093093;28;19926;-73
2024/01/14 00:32:26;;;;;;;;;;;28.30;99.90;;;;;;5098092;28;19947;-76
2024/01/14 00:34:53;;;;;;;;;;;28.60;99.90;;;;;;5101030;28;20357;-77
2024/01/14 00:37:20;;;;;;;;;;;28.90;99.90;;;;;;5093995;28;19915;-75
2024/01/14 00:39:46;;;;;;;;;;;29.00;99.90;;;;;;5092825;28;19919;-71
2024/01/14 00:42:13;;;;;;;;;;;29.10;99.90;;;;;;5092694;28;19909;-74
2024/01/14 00:44:41;;;;;;;;;;;29.00;99.90;;;;;;5092475;28;19973;-68
2024/01/14 00:47:08;;;;;;;;;;;29.10;99.90;;;;;;5092276;28;20288;-70
2024/01/14 00:49:35;;;;;;;;;;;29.20;99.90;;;;;;5092424;28;19908;-75
2024/01/14 00:52:02;;;;;;;;;;;29.30;99.90;;;;;;5092001;28;20357;-70
2024/01/14 00:54:29;;;;;;;;;;;29.30;99.90;;;;;;5092194;28;19943;-74
2024/01/14 00:56:55;;;;;;;;;;;29.30;99.90;;;;;;5103016;28;19959;-72
2024/01/14 00:59:22;;;;;;;;;;;29.20;99.90;;;;;;5095818;28;19908;-69
2024/01/14 01:01:48;;;;;;;;;;;29.20;99.90;;;;;;5108217;28;19915;-74
2024/01/14 01:04:15;;;;;;;;;;;29.20;99.90;;;;;;5115014;28;19914;-69
2024/01/14 01:06:42;;;;;;;;;;;29.20;99.90;;;;;;5115573;28;20402;-75
2024/01/14 01:09:08;;;;;;;;;;;29.20;99.90;;;;;;5115999;28;20363;-75
2024/01/14 01:11:35;;;;;;;;;;;29.40;99.90;;;;;;5115288;28;19960;-74
2024/01/14 01:14:02;;;;;;;;;;;29.40;99.90;;;;;;5115671;28;20360;-75
2024/01/14 01:16:29;;;;;;;;;;;29.60;99.90;;;;;;5115792;28;20006;-72
2024/01/14 01:18:55;;;;;;;;;;;29.80;99.90;;;;;;5114075;28;20372;-76
2024/01/14 01:21:22;;;;;;;;;;;29.60;99.90;;;;;;5115068;28;19918;-72
2024/01/14 01:23:49;;;;;;;;;;;29.40;99.90;;;;;;5115404;28;19911;-73
2024/01/14 01:26:15;;;;;;;;;;;29.00;99.90;;;;;;5114961;28;20257;-71
2024/01/14 01:28:42;;;;;;;;;;;28.90;99.90;;;;;;5109946;28;20318;-76
2024/01/14 01:31:09;;;;;;;;;;;28.80;99.90;;;;;;5098885;28;19924;-69
2024/01/14 01:33:36;;;;;;;;;;;28.70;99.90;;;;;;5094593;28;19914;-77
2024/01/14 01:36:03;;;;;;;;;;;28.40;99.90;;;;;;5099164;27;21257;-77
2024/01/14 01:38:30;;;;;;;;;;;28.00;99.90;;;;;;5103938;28;19908;-73
2024/01/14 01:40:56;;;;;;;;;;;28.00;99.90;;;;;;5111503;27;20044;-70
2024/01/14 01:43:23;;;;;;;;;;;28.20;99.90;;;;;;5103626;28;19912;-68
2024/01/14 01:45:51;;;;;;;;;;;28.40;99.90;;;;;;5105647;27;19916;-69
2024/01/14 01:48:19;;;;;;;;;;;28.70;99.90;;;;;;5094510;28;19978;-76
2024/01/14 01:50:51;;;;;;;;;;;28.70;99.90;;;;;;5104535;27;19943;-79
2024/01/14 01:53:19;;;;;;;;;;;29.00;99.90;;;;;;5099811;28;19916;-71
2024/01/14 01:55:46;;;;;;;;;;;29.20;99.90;;;;;;5108308;28;20412;-70
2024/01/14 01:58:13;;;;;;;;;;;29.00;99.90;;;;;;5109482;28;19971;-70
2024/01/14 02:00:40;;;;;;;;;;;29.00;99.90;;;;;;5103956;28;19912;-71
2024/01/14 02:03:09;;;;;;;;;;;28.90;99.90;;;;;;5119601;27;19955;-77
2024/01/14 02:05:38;;;;;;;;;;;28.70;99.90;;;;;;5102678;27;20398;-65
2024/01/14 02:08:07;;;;;;;;;;;28.40;99.90;;;;;;5104553;28;19914;-74
2024/01/14 02:10:34;;;;;;;;;;;28.10;99.90;;;;;;5084798;28;19912;-68
2024/01/14 02:13:03;;;;;;;;;;;27.70;99.90;;;;;;5103617;28;19912;-71
2024/01/14 02:15:30;;;;;;;;;;;27.10;99.90;;;;;;5103976;28;19988;-71
2024/01/14 02:17:57;;;;;;;;;;;26.60;99.90;;;;;;5108918;28;19992;-68
2024/01/14 02:20:24;;;;;;;;;;;26.30;99.90;;;;;;5109924;28;19916;-78
2024/01/14 02:22:53;;;;;;;;;;;26.00;99.90;;;;;;5106042;28;19950;-72
2024/01/14 02:25:20;;;;;;;;;;;25.70;99.90;;;;;;5108078;28;19912;-76
2024/01/14 02:27:47;;;;;;;;;;;25.60;99.90;;;;;;5105632;28;19920;-72
2024/01/14 02:30:15;;;;;;;;;;;25.50;99.90;;;;;;5102566;28;19916;-70
2024/01/14 02:32:42;;;;;;;;;;;25.50;99.90;;;;;;5101817;28;20437;-71
2024/01/14 02:35:09;;;;;;;;;;;25.50;99.90;;;;;;5104501;28;19909;-69
2024/01/14 02:37:43;;;;;;;;;;;25.70;99.90;;;;;;5113258;28;19955;-72
2024/01/14 02:40:11;;;;;;;;;;;25.90;99.90;;;;;;5107652;28;19912;-71
2024/01/14 02:42:41;;;;;;;;;;;26.00;99.90;;;;;;5113170;27;19950;-70
2024/01/14 02:45:09;;;;;;;;;;;26.10;99.90;;;;;;5108603;28;19946;-66
2024/01/14 02:47:45;;;;;;;;;;;26.10;99.90;;;;;;5110439;27;20002;-66
2024/01/14 02:50:13;;;;;;;;;;;26.10;99.90;;;;;;5105138;28;19912;-71
2024/01/14 02:52:40;;;;;;;;;;;26.10;99.90;;;;;;5105772;28;19916;-67
2024/01/14 02:55:08;;;;;;;;;;;26.10;99.90;;;;;;5112240;28;20371;-67
2024/01/14 02:57:40;;;;;;;;;;;26.30;99.90;;;;;;5119961;27;20301;-65
2024/01/14 03:00:07;;;;;;;;;;;26.50;99.90;;;;;;5131142;27;19995;-66
2024/01/14 03:02:34;;;;;;;;;;;26.60;99.90;;;;;;5098614;27;19919;-72
2024/01/14 03:05:02;;;;;;;;;;;26.80;99.90;;;;;;5112655;28;19908;-68
2024/01/14 03:07:29;;;;;;;;;;;26.90;99.90;;;;;;5107733;28;19912;-72
2024/01/14 03:09:56;;;;;;;;;;;27.00;99.90;;;;;;5094934;28;19990;-73
2024/01/14 03:12:23;;;;;;;;;;;27.20;99.90;;;;;;5115403;27;19918;-68
2024/01/14 03:14:50;;;;;;;;;;;27.30;99.90;;;;;;5118415;27;19922;-78
2024/01/14 03:17:19;;;;;;;;;;;27.30;99.90;;;;;;5113223;27;20010;-70
2024/01/14 03:19:46;;;;;;;;;;;27.30;99.90;;;;;;5107150;28;19912;-73
2024/01/14 03:22:13;;;;;;;;;;;27.30;99.90;;;;;;5093710;28;20369;-70
2024/01/14 03:24:40;;;;;;;;;;;27.30;99.90;;;;;;5112442;28;19908;-68
2024/01/14 03:27:08;;;;;;;;;;;27.40;99.90;;;;;;5096360;28;19986;-72
2024/01/14 03:29:35;;;;;;;;;;;27.30;99.90;;;;;;5113722;27;19919;-72
2024/01/14 03:32:02;;;;;;;;;;;27.30;99.90;;;;;;5105475;28;19920;-69
2024/01/14 03:34:30;;;;;;;;;;;27.20;99.90;;;;;;5111530;28;20632;-74
2024/01/14 03:36:57;;;;;;;;;;;27.10;99.90;;;;;;5097803;28;19920;-73
2024/01/14 03:39:26;;;;;;;;;;;26.90;99.90;;;;;;5104158;28;19957;-68
2024/01/14 03:41:53;;;;;;;;;;;26.80;99.90;;;;;;5077713;28;20006;-66
2024/01/14 03:44:23;;;;;;;;;;;26.80;99.90;;;;;;5107218;28;19924;-76
2024/01/14 03:46:52;;;;;;;;;;;26.70;99.90;;;;;;5111074;28;20011;-75
2024/01/14 03:49:20;;;;;;;;;;;26.60;99.90;;;;;;5112652;28;20265;-72
2024/01/14 03:51:47;;;;;;;;;;;26.50;99.90;;;;;;5105569;28;20339;-69
2024/01/14 03:54:15;;;;;;;;;;;26.60;99.90;;;;;;5109106;28;19918;-67
2024/01/14 03:56:42;;;;;;;;;;;26.90;99.90;;;;;;5115353;28;19920;-71
2024/01/14 03:59:09;;;;;;;;;;;27.30;99.90;;;;;;5112620;28;19919;-69
2024/01/14 04:01:36;;;;;;;;;;;27.70;99.90;;;;;;5113143;28;19915;-81
2024/01/14 04:04:03;;;;;;;;;;;28.00;99.90;;;;;;5105701;28;19912;-71
2024/01/14 04:06:30;;;;;;;;;;;28.60;99.90;;;;;;5105304;28;20006;-70
2024/01/14 04:08:57;;;;;;;;;;;29.20;99.90;;;;;;5105552;28;19912;-71
2024/01/14 04:11:24;;;;;;;;;;;29.70;99.90;;;;;;5111277;28;20384;-72
2024/01/14 04:13:51;;;;;;;;;;;30.00;99.90;;;;;;5114253;28;19920;-74
2024/01/14 04:16:19;;;;;;;;;;;30.00;99.90;;;;;;5114924;28;19911;-74
2024/01/14 04:18:46;;;;;;;;;;;29.60;99.90;;;;;;5116705;28;20402;-76
2024/01/14 04:21:22;;;;;;;;;;;28.80;99.90;;;;;;5110240;28;19935;-70
2024/01/14 04:23:50;;;;;;;;;;;28.10;99.90;;;;;;5103466;28;19942;-67
2024/01/14 04:26:24;;;;;;;;;;;27.30;99.90;;;;;;5110867;28;19912;-69
2024/01/14 04:28:52;;;;;;;;;;;26.70;99.90;;;;;;5112291;28;19911;-70
2024/01/14 04:31:19;;;;;;;;;;;26.30;99.90;;;;;;5112831;28;19919;-75
2024/01/14 04:33:48;;;;;;;;;;;25.90;99.90;;;;;;5097830;28;19922;-73
2024/01/14 04:36:18;;;;;;;;;;;25.60;99.90;;;;;;5095874;28;19908;-72
2024/01/14 04:38:44;;;;;;;;;;;25.50;99.90;;;;;;5106024;28;19918;-69
2024/01/14 04:41:11;;;;;;;;;;;25.40;99.90;;;;;;5115227;28;19964;-68
2024/01/14 04:43:38;;;;;;;;;;;25.20;99.90;;;;;;5115910;28;19980;-68
2024/01/14 04:46:08;;;;;;;;;;;25.10;99.90;;;;;;5115610;28;19907;-65
2024/01/14 04:48:34;;;;;;;;;;;25.10;99.90;;;;;;5110777;28;20002;-67
2024/01/14 04:51:01;;;;;;;;;;;25.10;99.90;;;;;;5114466;28;20311;-76
2024/01/14 04:53:28;;;;;;;;;;;25.00;99.90;;;;;;5097504;28;19919;-71
2024/01/14 04:55:54;;;;;;;;;;;24.90;99.90;;;;;;5115690;28;19962;-69
2024/01/14 04:58:21;;;;;;;;;;;24.80;99.90;;;;;;5115740;27;19922;-67
2024/01/14 05:00:47;;;;;;;;;;;24.80;99.90;;;;;;5113248;28;19966;-67
2024/01/14 05:03:14;;;;;;;;;;;24.60;99.90;;;;;;5099976;27;20402;-69
2024/01/14 05:05:41;;;;;;;;;;;24.60;99.90;;;;;;5112941;28;20007;-72
2024/01/14 05:08:07;;;;;;;;;;;24.60;99.90;;;;;;5098448;28;20359;-68
2024/01/14 05:10:34;;;;;;;;;;;24.70;99.90;;;;;;5115091;28;19920;-64
2024/01/14 05:13:00;;;;;;;;;;;24.60;99.90;;;;;;5107145;28;19912;-69
2024/01/14 05:15:27;;;;;;;;;;;24.70;99.90;;;;;;5104566;28;19912;-65
2024/01/14 05:17:54;;;;;;;;;;;24.80;99.90;;;;;;5097245;28;20349;-65
2024/01/14 05:20:21;;;;;;;;;;;24.90;99.90;;;;;;5115280;28;19918;-66
2024/01/14 05:22:48;;;;;;;;;;;25.00;99.90;;;;;;5114802;28;19934;-70
2024/01/14 05:25:14;;;;;;;;;;;25.10;99.90;;;;;;5112750;28;20570;-70
2024/01/14 05:27:41;;;;;;;;;;;25.40;99.90;;;;;;5114970;28;19933;-64
2024/01/14 05:30:08;;;;;;;;;;;25.60;99.90;;;;;;5114680;27;20360;-65
2024/01/14 05:32:35;;;;;;;;;;;25.90;99.90;;;;;;5114811;28;19912;-65
2024/01/14 05:35:01;;;;;;;;;;;25.90;99.90;;;;;;5114017;28;19911;-65
2024/01/14 05:37:28;;;;;;;;;;;26.10;99.90;;;;;;5114865;28;19911;-63
2024/01/14 05:39:55;;;;;;;;;;;26.20;99.90;;;;;;5114878;28;19953;-70
2024/01/14 05:42:21;;;;;;;;;;;26.20;99.90;;;;;;5113818;28;20005;-67
2024/01/14 05:44:48;;;;;;;;;;;26.30;99.90;;;;;;5105329;28;20429;-65
2024/01/14 05:47:15;;;;;;;;;;;26.30;99.90;;;;;;5114313;28;19915;-67
2024/01/14 05:49:41;;;;;;;;;;;26.50;99.90;;;;;;5114955;28;19957;-69
2024/01/14 05:52:08;;;;;;;;;;;26.70;99.90;;;;;;5113911;28;19920;-64
2024/01/14 05:54:34;;;;;;;;;;;27.00;99.90;;;;;;5113953;28;19923;-64
2024/01/14 05:57:01;;;;;;;;;;;27.10;99.90;;;;;;5114332;28;19912;-64
2024/01/14 05:59:28;;;;;;;;;;;26.90;99.90;;;;;;5114239;27;20006;-65
2024/01/14 06:01:55;;;;;;;;;;;27.10;99.90;;;;;;5114604;28;19999;-61
2024/01/14 06:04:22;;;;;;;;;;;27.30;99.90;;;;;;5107933;27;19946;-68
2024/01/14 06:06:48;;;;;;;;;;;27.50;99.90;;;;;;5114311;28;19918;-71
2024/01/14 06:09:16;;;;;;;;;;;27.90;99.90;;;;;;5114243;28;19912;-68
2024/01/14 06:11:43;;;;;;;;;;;27.90;99.90;;;;;;5113225;28;20281;-69
2024/01/14 06:14:09;;;;;;;;;;;28.00;99.90;;;;;;5114365;28;19912;-66
2024/01/14 06:16:39;;;;;;;;;;;28.00;99.90;;;;;;5113342;28;19915;-68
2024/01/14 06:19:06;;;;;;;;;;;28.00;99.90;;;;;;5113883;28;19916;-64
2024/01/14 06:21:32;;;;;;;;;;;28.10;99.90;;;;;;5112881;28;20368;-65
2024/01/14 06:23:59;;;;;;;;;;;28.10;99.90;;;;;;5113758;27;19915;-64
2024/01/14 06:26:26;;;;;;;;;;;28.00;99.90;;;;;;5112883;28;20006;-69
2024/01/14 06:28:52;;;;;;;;;;;27.80;99.90;;;;;;5113905;28;19912;-63
2024/01/14 06:31:19;;;;;;;;;;;27.60;99.90;;;;;;5113335;28;19924;-66
2024/01/14 06:33:45;;;;;;;;;;;27.50;99.90;;;;;;5113089;27;19946;-66
2024/01/14 06:36:12;;;;;;;;;;;27.50;99.90;;;;;;5112990;28;19994;-71
2024/01/14 06:38:39;;;;;;;;;;;27.70;99.90;;;;;;5093388;28;20015;-65
2024/01/14 06:41:05;;;;;;;;;;;27.70;99.90;;;;;;5113347;28;19995;-71
2024/01/14 06:43:32;;;;;;;;;;;27.60;99.90;;;;;;5113517;28;20343;-66
2024/01/14 06:45:59;;;;;;;;;;;27.40;99.90;;;;;;5102575;28;19915;-69
2024/01/14 06:48:25;;;;;;;;;;;27.30;99.90;;;;;;5103001;28;19908;-64
2024/01/14 06:50:52;;;;;;;;;;;27.30;99.90;;;;;;5095627;28;19947;-65
2024/01/14 06:53:18;;;;;;;;;;;27.20;99.90;;;;;;5101280;28;19912;-70
2024/01/14 06:55:45;;;;;;;;;;;27.10;99.90;;;;;;5103023;28;19927;-66
2024/01/14 06:58:12;;;;;;;;;;;26.80;99.90;;;;;;5102313;28;19961;-70
2024/01/14 07:00:39;;;;;;;;;;;26.50;99.90;;;;;;5104841;28;19998;-69
2024/01/14 07:03:05;;;;;;;;;;;26.30;99.90;;;;;;5101879;28;19912;-70
2024/01/14 07:05:32;;;;;;;;;;;26.10;99.90;;;;;;5102224;28;19912;-65
2024/01/14 07:07:59;;;;;;;;;;;26.10;99.90;;;;;;5102950;28;19915;-65
2024/01/14 07:10:25;;;;;;;;;;;26.00;99.90;;;;;;5101363;28;19920;-65
2024/01/14 07:12:52;;;;;;;;;;;25.90;99.90;;;;;;5103169;28;19916;-66
2024/01/14 07:15:18;;;;;;;;;;;25.80;99.90;;;;;;5100440;28;20416;-65
2024/01/14 07:17:45;;;;;;;;;;;25.70;99.90;;;;;;5103287;28;19914;-66
2024/01/14 07:20:12;;;;;;;;;;;25.60;99.90;;;;;;5100714;28;19907;-66
2024/01/14 07:22:38;;;;;;;;;;;25.40;99.90;;;;;;5105488;28;20030;-64
2024/01/14 07:25:05;;;;;;;;;;;25.10;99.90;;;;;;5102881;28;20367;-63
2024/01/14 07:27:33;;;;;;;;;;;25.00;99.90;;;;;;5092711;28;19908;-62
2024/01/14 07:29:59;;;;;;;;;;;24.90;99.90;;;;;;5105669;28;19920;-62
2024/01/14 07:32:26;;;;;;;;;;;24.80;99.90;;;;;;5108138;28;20314;-65
2024/01/14 07:34:53;;;;;;;;;;;24.70;99.90;;;;;;5107706;28;19912;-71
2024/01/14 07:37:20;;;;;;;;;;;24.80;99.90;;;;;;5099680;28;20315;-68
2024/01/14 07:39:46;;;;;;;;;;;24.60;99.90;;;;;;5101238;28;19908;-69
2024/01/14 07:42:16;;;;;;;;;;;24.60;99.90;;;;;;5102875;28;19953;-68
2024/01/14 07:44:43;;;;;;;;;;;24.70;99.90;;;;;;5102174;28;19912;-67
2024/01/14 07:47:12;;;;;;;;;;;24.70;99.90;;;;;;5082795;28;20333;-74
2024/01/14 07:49:38;;;;;;;;;;;24.60;99.90;;;;;;5102327;28;19995;-68
2024/01/14 07:52:05;;;;;;;;;;;24.60;99.90;;;;;;5100827;28;19916;-64
2024/01/14 07:54:32;;;;;;;;;;;24.50;99.90;;;;;;5092095;28;19923;-66
2024/01/14 07:56:58;;;;;;;;;;;24.40;99.90;;;;;;5103279;28;20417;-69
2024/01/14 07:59:25;;;;;;;;;;;24.30;99.90;;;;;;5101079;28;19908;-67
2024/01/14 08:01:52;;;;;;;;;;;24.30;99.90;;;;;;5102119;28;19955;-68
2024/01/14 08:04:18;;;;;;;;;;;24.30;99.90;;;;;;5103030;28;19922;-72
2024/01/14 08:06:45;;;;;;;;;;;24.20;99.90;;;;;;5104676;28;19908;-70
2024/01/14 08:09:12;;;;;;;;;;;24.10;99.90;;;;;;5104225;28;19916;-72
2024/01/14 08:11:39;;;;;;;;;;;24.00;99.90;;;;;;5105290;28;19928;-70
2024/01/14 08:14:05;;;;;;;;;;;23.80;99.90;;;;;;5102743;28;20025;-75
2024/01/14 08:16:32;;;;;;;;;;;23.80;99.90;;;;;;5106357;28;20360;-64
2024/01/14 08:18:59;;;;;;;;;;;23.70;99.90;;;;;;5106121;28;19912;-69
2024/01/14 08:21:25;;;;;;;;;;;23.70;99.90;;;;;;5106946;28;19918;-72
2024/01/14 08:23:52;;;;;;;;;;;23.60;99.90;;;;;;5099763;28;19912;-63
2024/01/14 08:26:18;;;;;;;;;;;23.60;99.90;;;;;;5097346;28;20311;-71
2024/01/14 08:28:45;;;;;;;;;;;23.70;99.90;;;;;;5097370;28;19908;-69
2024/01/14 08:31:12;;;;;;;;;;;23.70;99.90;;;;;;5116562;28;19916;-69
2024/01/14 08:33:42;;;;;;;;;;;23.70;99.90;;;;;;5108784;28;19919;-69
2024/01/14 08:36:09;;;;;;;;;;;23.50;99.90;;;;;;5099389;28;20373;-69
2024/01/14 08:38:36;;;;;;;;;;;23.60;99.90;;;;;;5099743;28;19919;-67
2024/01/14 08:41:02;;;;;;;;;;;23.50;99.90;;;;;;5113093;28;20356;-71
2024/01/14 08:43:29;;;;;;;;;;;23.40;99.90;;;;;;5116361;28;20480;-69
2024/01/14 08:45:56;;;;;;;;;;;23.50;99.90;;;;;;5105634;28;19951;-61
2024/01/14 08:48:22;;;;;;;;;;;23.50;99.90;;;;;;5108090;28;19981;-67
2024/01/14 08:50:49;;;;;;;;;;;23.50;99.90;;;;;;5106535;28;20002;-64
2024/01/14 08:53:15;;;;;;;;;;;23.50;99.90;;;;;;5094366;28;19912;-68
2024/01/14 08:55:42;;;;;;;;;;;23.40;99.90;;;;;;5093650;28;20002;-65
2024/01/14 08:58:09;;;;;;;;;;;23.40;99.90;;;;;;5094158;28;19918;-64
2024/01/14 09:00:35;;;;;;;;;;;23.40;99.90;;;;;;5093849;28;19919;-69
2024/01/14 09:03:03;;;;;;;;;;;23.30;99.90;;;;;;5093903;28;19914;-68
2024/01/14 09:05:29;;;;;;;;;;;23.30;99.90;;;;;;5093908;28;19912;-71
2024/01/14 09:07:56;;;;;;;;;;;23.30;99.90;;;;;;5094849;28;20427;-65
2024/01/14 09:10:23;;;;;;;;;;;23.30;99.90;;;;;;5095844;28;19923;-69
2024/01/14 09:12:49;;;;;;;;;;;23.20;99.90;;;;;;5095896;28;19919;-72
2024/01/14 09:15:16;;;;;;;;;;;23.10;99.90;;;;;;5095903;28;19952;-68
2024/01/14 09:17:43;;;;;;;;;;;22.90;99.90;;;;;;5095366;28;19999;-69
2024/01/14 09:20:09;;;;;;;;;;;22.80;99.90;;;;;;5095850;28;19980;-68
2024/01/14 09:22:36;;;;;;;;;;;22.80;99.90;;;;;;5095764;28;20381;-64
2024/01/14 09:25:03;;;;;;;;;;;22.70;99.90;;;;;;5095543;28;20045;-70
2024/01/14 09:27:30;;;;;;;;;;;22.70;99.90;;;;;;5095400;28;19960;-69
2024/01/14 09:29:57;;;;;;;;;;;22.70;99.90;;;;;;5095398;28;19981;-68
2024/01/14 09:32:24;;;;;;;;;;;22.70;99.90;;;;;;5095364;28;20379;-68
2024/01/14 09:34:50;;;;;;;;;;;22.80;99.90;;;;;;5095661;28;20011;-69
2024/01/14 09:37:17;;;;;;;;;;;22.80;99.90;;;;;;5077372;28;20367;-70
2024/01/14 09:39:44;;;;;;;;;;;22.80;99.90;;;;;;5095377;28;19908;-70
2024/01/14 09:42:11;;;;;;;;;;;22.90;99.90;;;;;;5095265;28;19908;-69
2024/01/14 09:44:38;;;;;;;;;;;22.80;99.90;;;;;;5095599;28;19908;-68
2024/01/14 09:47:05;;;;;;;;;;;22.80;99.90;;;;;;5095190;28;20269;-69
2024/01/14 09:49:31;;;;;;;;;;;22.80;99.90;;;;;;5095057;28;20365;-66
2024/01/14 09:51:59;;;;;;;;;;;22.80;99.90;;;;;;5095152;28;19923;-66
2024/01/14 09:54:25;;;;;;;;;;;22.80;99.90;;;;;;5095043;28;19909;-68
2024/01/14 09:56:53;;;;;;;;;;;22.70;99.90;;;;;;5094717;28;19963;-66
2024/01/14 09:59:21;;;;;;;;;;;22.80;99.90;;;;;;5095135;28;19914;-64
2024/01/14 10:01:48;;;;;;;;;;;22.70;99.90;;;;;;5094767;28;19963;-66
2024/01/14 10:04:16;;;;;;;;;;;22.60;99.90;;;;;;5094799;28;19915;-67
2024/01/14 10:06:43;;;;;;;;;;;22.60;99.90;;;;;;5094652;28;19955;-69
2024/01/14 10:09:10;;;;;;;;;;;22.60;99.90;;;;;;5094579;28;19931;-65
2024/01/14 10:11:37;;;;;;;;;;;22.60;99.90;;;;;;5094656;28;19916;-68
2024/01/14 10:14:04;;;;;;;;;;;22.50;99.90;;;;;;5094366;28;19915;-67
2024/01/14 10:16:30;;;;;;;;;;;22.60;99.90;;;;;;5094489;28;19962;-66
2024/01/14 10:18:57;;;;;;;;;;;22.50;99.90;;;;;;5076613;28;20348;-67
2024/01/14 10:21:25;;;;;;;;;;;22.60;99.90;;;;;;5094437;28;19953;-68
2024/01/14 10:23:51;;;;;;;;;;;22.50;99.90;;;;;;5094519;28;19908;-68
2024/01/14 10:26:21;;;;;;;;;;;22.50;99.90;;;;;;5094612;28;19961;-69
2024/01/14 10:28:48;;;;;;;;;;;22.50;99.90;;;;;;5094204;28;19912;-69
2024/01/14 10:31:15;;;;;;;;;;;22.40;99.90;;;;;;5094314;28;20276;-68
2024/01/14 10:33:41;;;;;;;;;;;22.40;99.90;;;;;;5094304;28;19953;-70
2024/01/14 10:36:08;;;;;;;;;;;22.40;99.90;;;;;;5094359;28;19915;-67
2024/01/14 10:38:36;;;;;;;;;;;22.50;99.90;;;;;;5094336;28;19908;-69
2024/01/14 10:41:06;;;;;;;;;;;22.40;99.90;;;;;;5094154;28;19908;-65
2024/01/14 10:43:34;;;;;;;;;;;22.50;99.90;;;;;;5094051;28;19908;-65
2024/01/14 10:46:02;;;;;;;;;;;22.50;99.90;;;;;;5094306;28;19909;-66
2024/01/14 10:48:30;;;;;;;;;;;22.40;99.90;;;;;;5094037;28;19912;-67
2024/01/14 10:51:03;;;;;;;;;;;22.50;99.90;;;;;;5094009;28;19924;-68
2024/01/14 10:53:42;;;;;;;;;;;22.50;99.90;;;;;;5093888;28;19966;-65
2024/01/14 10:56:11;;;;;;;;;;;22.60;99.90;;;;;;5093559;28;19999;-68
2024/01/14 10:58:41;;;;;;;;;;;22.60;99.90;;;;;;5093830;28;19915;-66
2024/01/14 11:01:08;;;;;;;;;;;22.60;99.90;;;;;;5093731;28;20369;-64
2024/01/14 11:03:35;;;;;;;;;;;22.50;99.90;;;;;;5093401;28;19923;-67
2024/01/14 11:06:01;;;;;;;;;;;22.50;99.90;;;;;;5093745;28;19908;-65
2024/01/14 11:08:28;;;;;;;;;;;22.50;99.90;;;;;;5093662;28;19908;-68
2024/01/14 11:10:55;;;;;;;;;;;22.40;99.90;;;;;;5093583;28;20010;-70
2024/01/14 11:13:27;;;;;;;;;;;22.40;99.90;;;;;;5093509;28;19912;-70
2024/01/14 11:16:06;;;;;;;;;;;22.30;99.90;;;;;;5093608;28;19916;-69
2024/01/14 11:18:39;;;;;;;;;;;22.20;99.90;;;;;;5093547;28;19937;-71
2024/01/14 11:21:26;;;;;;;;;;;22.20;99.90;;;;;;5093463;28;20368;-72
2024/01/14 11:23:53;;;;;;;;;;;22.00;99.90;;;;;;5093111;28;19998;-72
2024/01/14 11:26:19;;;;;;;;;;;21.90;99.90;;;;;;5093442;28;20357;-64
2024/01/14 11:28:46;;;;;;;;;;;22.00;99.90;;;;;;5093403;28;20388;-69
2024/01/14 11:31:13;;;;;;;;;;;22.00;99.90;;;;;;5093335;28;19922;-69
2024/01/14 11:33:42;;;;;;;;;;;22.00;99.90;;;;;;5093016;28;19912;-69
2024/01/14 11:36:09;;;;;;;;;;;22.10;99.90;;;;;;5093083;28;19908;-69
2024/01/14 11:38:37;;;;;;;;;;;22.10;99.90;;;;;;5093097;28;19908;-68
2024/01/14 11:41:22;;;;;;;;;;;22.20;99.90;;;;;;5092799;28;19908;-64
2024/01/14 11:43:50;;;;;;;;;;;22.20;99.90;;;;;;5092970;28;19915;-65
2024/01/14 11:46:35;;;;;;;;;;;22.20;99.90;;;;;;5092860;28;19912;-69
2024/01/14 11:49:10;;;;;;;;;;;22.20;99.90;;;;;;5093048;28;20323;-64
2024/01/14 11:51:43;;;;;;;;;;;22.20;99.90;;;;;;5074712;28;19923;-66
2024/01/14 11:54:10;;;;;;;;;;;22.30;99.90;;;;;;5092790;28;19912;-65
2024/01/14 11:56:37;;;;;;;;;;;22.30;99.90;;;;;;5092490;28;20357;-68
2024/01/14 11:59:07;;;;;;;;;;;22.30;99.90;;;;;;5093169;28;19954;-70
2024/01/14 12:01:34;;;;;;;;;;;22.30;99.90;;;;;;5093175;28;20337;-69
2024/01/14 12:04:02;;;;;;;;;;;22.20;99.90;;;;;;5092914;28;19995;-64
2024/01/14 12:06:29;;;;;;;;;;;22.20;99.90;;;;;;5092877;28;19915;-65
2024/01/14 12:09:02;;;;;;;;;;;22.20;99.90;;;;;;5092721;28;19916;-73
2024/01/14 12:11:28;;;;;;;;;;;22.20;99.90;;;;;;5092690;28;19939;-67
2024/01/14 12:13:55;;;;;;;;;;;22.20;99.90;;;;;;5092670;28;19908;-66
2024/01/14 12:16:22;;;;;;;;;;;22.20;99.90;;;;;;5092553;28;19912;-66
2024/01/14 12:18:49;;;;;;;;;;;22.10;99.90;;;;;;5092847;28;19908;-66
2024/01/14 12:21:17;;;;;;;;;;;22.10;99.90;;;;;;5092762;28;19908;-67
2024/01/14 12:23:44;;;;;;;;;;;22.10;99.90;;;;;;5092731;28;19908;-68
2024/01/14 12:26:11;;;;;;;;;;;22.10;99.90;;;;;;5092579;28;20021;-68
2024/01/14 12:28:38;;;;;;;;;;;22.10;99.90;;;;;;5092683;28;19915;-66
2024/01/14 12:31:05;;;;;;;;;;;22.00;99.90;;;;;;5092699;28;19939;-66
2024/01/14 12:33:33;;;;;;;;;;;22.00;99.90;;;;;;5092497;28;19930;-68
2024/01/14 12:36:00;;;;;;;;;;;22.00;99.90;;;;;;5092296;28;19915;-66
2024/01/14 12:38:27;;;;;;;;;;;22.00;99.90;;;;;;5092690;28;20436;-69
2024/01/14 12:40:54;;;;;;;;;;;22.00;99.90;;;;;;5092596;28;19908;-69
2024/01/14 12:43:20;;;;;;;;;;;22.10;99.90;;;;;;5092784;28;20001;-63
2024/01/14 12:45:48;;;;;;;;;;;22.00;99.90;;;;;;5092455;28;19915;-70
2024/01/14 12:48:24;;;;;;;;;;;22.00;99.90;;;;;;5092675;28;20349;-68
2024/01/14 12:50:58;;;;;;;;;;;22.00;99.90;;;;;;5092326;28;19959;-66
2024/01/14 12:53:25;;;;;;;;;;;22.10;99.90;;;;;;5095288;28;19907;-71
2024/01/14 12:55:52;;;;;;;;;;;22.10;99.90;;;;;;5096036;28;20331;-67
2024/01/14 12:58:19;;;;;;;;;;;22.10;99.90;;;;;;5096232;28;19908;-67
2024/01/14 13:00:45;;;;;;;;;;;22.20;99.90;;;;;;5096289;28;19908;-67
2024/01/14 13:03:12;;;;;;;;;;;22.10;99.90;;;;;;5096042;28;20353;-69
2024/01/14 13:05:39;;;;;;;;;;;22.10;99.90;;;;;;5096196;28;19913;-62
2024/01/14 13:08:06;;;;;;;;;;;22.10;99.90;;;;;;5096176;28;19915;-69
2024/01/14 13:10:32;;;;;;;;;;;22.10;99.90;;;;;;5095926;28;19948;-63
2024/01/14 13:12:59;;;;;;;;;;;22.10;99.90;;;;;;5095690;28;20292;-67
2024/01/14 13:15:25;;;;;;;;;;;22.00;99.90;;;;;;5096049;28;19909;-70
2024/01/14 13:17:53;;;;;;;;;;;22.10;99.90;;;;;;5096008;28;19908;-66
2024/01/14 13:20:20;;;;;;;;;;;22.10;99.90;;;;;;5095566;28;19952;-69
2024/01/14 13:22:47;;;;;;;;;;;22.10;99.90;;;;;;5095804;28;19915;-63
2024/01/14 13:25:14;;;;;;;;;;;22.10;99.90;;;;;;5095784;28;19908;-70
2024/01/14 13:27:40;;;;;;;;;;;22.10;99.90;;;;;;5095827;28;20416;-64
2024/01/14 13:30:08;;;;;;;;;;;22.20;99.90;;;;;;5096069;28;19915;-64
2024/01/14 13:32:38;;;;;;;;;;;22.10;99.90;;;;;;5095320;28;20262;-62
2024/01/14 13:35:05;;;;;;;;;;;22.10;99.90;;;;;;5095440;28;19915;-61
2024/01/14 13:37:33;;;;;;;;;;;22.10;99.90;;;;;;5095389;28;19909;-65
2024/01/14 13:40:00;;;;;;;;;;;22.20;99.90;;;;;;5095279;28;19996;-68
2024/01/14 13:42:27;;;;;;;;;;;22.10;99.90;;;;;;5095332;28;19908;-62
2024/01/14 13:44:53;;;;;;;;;;;22.00;99.90;;;;;;5095205;28;19939;-67
2024/01/14 13:47:20;;;;;;;;;;;22.10;99.90;;;;;;5095407;28;19908;-67
2024/01/14 13:49:47;;;;;;;;;;;22.10;99.90;;;;;;5095070;28;19993;-65
2024/01/14 13:52:14;;;;;;;;;;;22.10;99.90;;;;;;5095465;28;19923;-69
2024/01/14 13:54:41;;;;;;;;;;;22.10;99.90;;;;;;5095135;28;19975;-61
2024/01/14 13:57:07;;;;;;;;;;;22.10;99.90;;;;;;5094953;28;19912;-63
2024/01/14 13:59:35;;;;;;;;;;;22.10;99.90;;;;;;5094836;28;19919;-67
2024/01/14 14:02:02;;;;;;;;;;;22.00;99.90;;;;;;5094982;28;20357;-65
2024/01/14 14:04:29;;;;;;;;;;;22.10;99.90;;;;;;5094400;28;19912;-65
2024/01/14 14:06:55;;;;;;;;;;;22.10;99.90;;;;;;5094929;28;19908;-68
2024/01/14 14:09:22;;;;;;;;;;;22.10;99.90;;;;;;5094708;28;19908;-65
2024/01/14 14:11:49;;;;;;;;;;;22.00;99.90;;;;;;5094702;28;19916;-67
2024/01/14 14:14:15;;;;;;;;;;;22.10;99.90;;;;;;5094714;28;20296;-67
2024/01/14 14:16:42;;;;;;;;;;;22.20;99.90;;;;;;5094884;28;19915;-65